Decoded Metar for UHHH (KHABAROVSK in RUSSIA) (IATA:KHV) | Meteo·Mobile Aviation Weather
aviador You're here:

UHHH Decoded Metar

KHABAROVSK in RUSSIA
Report Time2018-10-22 23:00:00
UTC Time2018-10-22 23:13:55
Flight Rules vfr VFR
Wind120° at 4 kt
W.Decomp.*RWY 05: 0.6 kt HW 4.0 kt RCW
W.Rank120° ranks 27
Current wind is below 120° avg. (4.2)
Visibility9999 m
Phenomena:N/A
Clouds:N/A
Expected CloudBase > 2,000 ft AGL from Temp-Dew spread
CeilingNone
Temp07°C (ISA -8)
Dew Point02°C (71% RH)
AAT3.9°C
QNH1017 hPa
Density Alt-709 ft
Elevation236 ft
Report Wrong Elevation
Raw Report
METAR UHHH 222300Z 12002MPS 090V150 CAVOK 07/02 Q1017 R23L/090060
NOSIG RMK QFE756/1008=

Extra information for UHHH:More info

Metar Taf Metar & Taf Last 4 Metars F.Rules Stats Wind Profile Meteogram Temp Stats Airport Information Weather charts Add Link Nearby VenuesMetar ALERT Operation Metar Decoded Social comments